Time;durP1;ratioP1;P1;durP2;ratioP2;P2;SDS_P1;SDS_P2;PMS_P1;PMS_P2;Temp;Humidity;BMP_temperature;BMP_pressure;BME280_temperature;BME280_humidity;BME280_pressure;Samples;Min_cycle;Max_cycle;Signal;HPM_P1;HPM_P2
2022/10/07 00:01:55;;;;;;;17.17;6.03;;;10.70;99.90;;;;;;5114376;28;20225;-96
2022/10/07 00:04:36;;;;;;;18.20;6.00;;;10.60;99.90;;;;;;5115011;28;20185;-96
2022/10/07 00:07:15;;;;;;;16.50;6.43;;;10.60;99.90;;;;;;5114847;28;20220;-96
2022/10/07 00:09:48;;;;;;;18.20;6.60;;;10.50;99.90;;;;;;5114575;28;20271;-96
2022/10/07 00:12:15;;;;;;;16.33;5.97;;;10.60;99.90;;;;;;5114754;28;20193;-95
2022/10/07 00:14:45;;;;;;;24.27;6.53;;;10.60;99.90;;;;;;5114503;28;20236;-96
2022/10/07 00:17:13;;;;;;;17.03;6.50;;;10.50;99.90;;;;;;5114806;28;20195;-95
2022/10/07 00:19:43;;;;;;;17.13;5.80;;;10.50;99.90;;;;;;5114240;28;20204;-96
2022/10/07 00:22:10;;;;;;;18.57;7.03;;;10.60;99.90;;;;;;5118299;28;20529;-95
2022/10/07 00:24:38;;;;;;;19.90;8.20;;;10.60;99.90;;;;;;5118533;28;20192;-90
2022/10/07 00:27:08;;;;;;;21.83;9.60;;;10.50;99.90;;;;;;5118755;28;20223;-96
2022/10/07 00:29:36;;;;;;;23.07;8.60;;;10.50;99.90;;;;;;5117987;28;20548;-95
2022/10/07 00:32:05;;;;;;;17.93;8.00;;;10.50;99.90;;;;;;5118126;28;20196;-93
2022/10/07 00:34:32;;;;;;;20.17;7.97;;;10.50;99.90;;;;;;5118263;28;20197;-92
2022/10/07 00:37:00;;;;;;;15.73;6.97;;;10.50;99.90;;;;;;5118592;28;20204;-86
2022/10/07 00:39:28;;;;;;;23.57;7.43;;;10.50;99.90;;;;;;5117465;28;20594;-90
2022/10/07 00:42:00;;;;;;;16.03;7.67;;;10.50;99.90;;;;;;5118322;28;20215;-96
2022/10/07 00:44:40;;;;;;;22.60;9.03;;;10.60;99.90;;;;;;5117367;28;20504;-96
2022/10/07 00:47:22;;;;;;;18.50;6.90;;;10.60;99.90;;;;;;5118034;28;20564;-96
2022/10/07 00:49:57;;;;;;;17.80;6.33;;;10.60;99.90;;;;;;5117926;28;20205;-94
2022/10/07 00:52:31;;;;;;;16.53;6.47;;;10.60;99.90;;;;;;5117560;28;20671;-96
2022/10/07 00:55:01;;;;;;;20.03;5.97;;;10.50;99.90;;;;;;5119486;28;20209;-96
2022/10/07 00:57:34;;;;;;;19.73;6.57;;;10.60;99.90;;;;;;5117471;28;20194;-96
2022/10/07 01:00:05;;;;;;;12.37;5.90;;;10.50;99.90;;;;;;5117527;28;20189;-96
2022/10/07 01:02:39;;;;;;;14.53;5.90;;;10.40;99.90;;;;;;5117827;28;20217;-94
2022/10/07 01:05:08;;;;;;;17.53;5.93;;;10.30;99.90;;;;;;5117559;28;20200;-94
2022/10/07 01:07:43;;;;;;;18.73;5.77;;;10.30;99.90;;;;;;5117376;28;20221;-94
2022/10/07 01:10:11;;;;;;;14.43;5.90;;;10.20;99.90;;;;;;5116951;28;20192;-94
2022/10/07 01:12:46;;;;;;;12.63;5.47;;;10.20;99.90;;;;;;5110068;28;20209;-95
2022/10/07 01:15:29;;;;;;;14.83;5.20;;;10.30;99.90;;;;;;5117108;28;20204;-94
2022/10/07 01:18:08;;;;;;;9.83;4.80;;;10.30;99.90;;;;;;5116844;28;20204;-94
2022/10/07 01:20:45;;;;;;;12.17;4.87;;;10.30;99.90;;;;;;5117040;28;20724;-88
2022/10/07 01:23:37;;;;;;;13.87;5.10;;;10.20;99.90;;;;;;5117257;28;20192;-93
2022/10/07 01:26:38;;;;;;;13.90;5.23;;;10.30;99.90;;;;;;5116909;28;20621;-94
2022/10/07 01:29:13;;;;;;;11.33;4.67;;;10.30;99.90;;;;;;5096180;28;20216;-83
2022/10/07 01:31:53;;;;;;;10.43;4.97;;;10.30;99.90;;;;;;5115920;28;20189;-93
2022/10/07 01:34:48;;;;;;;12.60;5.63;;;10.20;99.90;;;;;;5116777;28;20200;-94
2022/10/07 01:37:25;;;;;;;14.30;5.07;;;10.10;99.90;;;;;;5118525;28;20200;-94
2022/10/07 01:40:01;;;;;;;16.93;5.33;;;10.10;99.90;;;;;;5116945;28;20193;-94
2022/10/07 01:42:32;;;;;;;13.07;4.63;;;10.00;99.90;;;;;;5116429;28;20218;-96
2022/10/07 01:45:01;;;;;;;15.67;5.17;;;10.00;99.90;;;;;;5117431;28;20200;-96
2022/10/07 01:47:30;;;;;;;18.27;5.47;;;10.10;99.90;;;;;;5117649;28;20578;-95
2022/10/07 01:50:10;;;;;;;15.87;5.40;;;10.10;99.90;;;;;;5116492;28;20433;-96
2022/10/07 01:52:58;;;;;;;15.33;4.97;;;9.90;99.90;;;;;;5116754;28;20200;-96
2022/10/07 01:55:45;;;;;;;17.77;5.37;;;9.90;99.90;;;;;;5117428;28;20193;-96
2022/10/07 01:58:34;;;;;;;9.53;4.77;;;9.90;99.90;;;;;;5116664;28;20193;-96
2022/10/07 02:01:14;;;;;;;16.87;5.00;;;9.90;99.90;;;;;;5116587;28;20215;-96
2022/10/07 02:04:01;;;;;;;12.00;5.13;;;9.90;99.90;;;;;;5116812;28;20211;-96
2022/10/07 02:06:39;;;;;;;15.40;5.50;;;9.90;99.90;;;;;;5116736;28;20569;-95
2022/10/07 02:09:18;;;;;;;14.97;6.30;;;9.80;99.90;;;;;;5116233;28;20216;-95
2022/10/07 02:11:52;;;;;;;13.77;5.40;;;10.00;99.90;;;;;;5115626;28;20188;-94
2022/10/07 02:14:25;;;;;;;16.73;5.77;;;10.00;99.90;;;;;;5115733;28;20200;-92
2022/10/07 02:17:06;;;;;;;14.00;5.37;;;9.90;99.90;;;;;;5115808;28;20286;-91
2022/10/07 02:19:38;;;;;;;21.03;6.10;;;9.90;99.90;;;;;;5116670;28;20640;-92
2022/10/07 02:22:10;;;;;;;17.30;6.43;;;9.90;99.90;;;;;;5115483;28;20246;-92
2022/10/07 02:24:40;;;;;;;19.93;6.27;;;9.90;99.90;;;;;;5115499;28;20203;-94
2022/10/07 02:27:27;;;;;;;24.10;6.07;;;9.80;99.90;;;;;;5115517;28;20286;-93
2022/10/07 02:30:04;;;;;;;17.37;5.17;;;9.80;99.90;;;;;;5115665;28;20597;-91
2022/10/07 02:32:36;;;;;;;14.23;4.60;;;9.80;99.90;;;;;;5115703;28;20191;-91
2022/10/07 02:35:17;;;;;;;13.33;5.20;;;9.70;99.90;;;;;;5116172;28;20208;-94
2022/10/07 02:37:46;;;;;;;18.58;6.75;;;9.60;99.90;;;;;;5114711;28;20428;-94
2022/10/07 02:40:16;;;;;;;14.13;5.07;;;9.70;99.90;;;;;;5115590;28;20208;-91
2022/10/07 02:42:53;;;;;;;16.80;4.63;;;9.70;99.90;;;;;;5115587;28;20576;-94
2022/10/07 02:45:27;;;;;;;9.93;4.20;;;9.70;99.90;;;;;;5115721;28;20195;-92
2022/10/07 02:48:00;;;;;;;19.53;5.17;;;9.50;99.90;;;;;;5115407;28;20578;-94
2022/10/07 02:50:34;;;;;;;18.87;4.73;;;9.60;99.90;;;;;;5116005;28;20208;-85
2022/10/07 02:53:05;;;;;;;16.73;4.47;;;9.60;99.90;;;;;;5114631;28;20200;-96
2022/10/07 02:55:34;;;;;;;13.73;4.60;;;9.60;99.90;;;;;;5114354;28;20644;-89
2022/10/07 02:58:08;;;;;;;10.63;4.37;;;9.50;99.90;;;;;;5114727;28;20207;-94
2022/10/07 03:00:39;;;;;;;20.65;5.63;;;9.50;99.90;;;;;;5114194;28;20424;-89
2022/10/07 03:03:07;;;;;;;12.93;4.57;;;9.60;99.90;;;;;;5114325;28;20225;-95
2022/10/07 03:05:35;;;;;;;17.87;4.13;;;9.60;99.90;;;;;;5114514;28;20199;-86
2022/10/07 03:08:04;;;;;;;12.33;4.40;;;9.50;99.90;;;;;;5114066;28;20213;-86
2022/10/07 03:10:32;;;;;;;16.57;4.00;;;9.50;99.90;;;;;;5114356;28;20208;-94
2022/10/07 03:13:00;;;;;;;20.20;4.50;;;9.50;99.90;;;;;;5114207;28;20212;-86
2022/10/07 03:15:29;;;;;;;14.13;5.20;;;9.50;99.90;;;;;;5114383;28;20207;-95
2022/10/07 03:17:56;;;;;;;15.60;4.80;;;9.40;99.90;;;;;;5114160;28;20207;-86
2022/10/07 03:20:24;;;;;;;13.73;3.83;;;9.50;99.90;;;;;;5114024;28;20200;-90
2022/10/07 03:22:51;;;;;;;13.63;4.50;;;9.60;99.90;;;;;;5113615;28;20195;-84
2022/10/07 03:25:18;;;;;;;11.13;4.33;;;9.50;99.90;;;;;;5114195;28;20185;-86
2022/10/07 03:27:47;;;;;;;10.97;3.40;;;9.60;99.90;;;;;;5113799;28;20660;-85
2022/10/07 03:30:18;;;;;;;11.17;3.93;;;9.60;99.90;;;;;;5114021;28;20200;-96
2022/10/07 03:32:45;;;;;;;13.60;3.93;;;9.50;99.90;;;;;;5114606;28;20261;-93
2022/10/07 03:35:12;;;;;;;13.57;3.57;;;9.60;99.90;;;;;;5113567;28;20211;-86
2022/10/07 03:37:40;;;;;;;15.37;4.40;;;9.50;99.90;;;;;;5113672;28;20210;-86
2022/10/07 03:40:10;;;;;;;12.43;4.20;;;9.60;99.90;;;;;;5113942;28;20574;-93
2022/10/07 03:42:37;;;;;;;19.87;4.47;;;9.70;99.90;;;;;;5114005;28;20208;-87
2022/10/07 03:45:06;;;;;;;9.83;3.37;;;9.60;99.90;;;;;;5114015;28;20192;-96
2022/10/07 03:47:33;;;;;;;11.13;4.10;;;9.60;99.90;;;;;;5114740;28;20184;-90
2022/10/07 03:49:59;;;;;;;17.93;4.97;;;9.60;99.90;;;;;;5114150;28;20240;-95
2022/10/07 03:52:26;;;;;;;10.17;4.03;;;9.60;99.90;;;;;;5113993;28;20193;-90
2022/10/07 03:54:55;;;;;;;12.57;3.67;;;9.60;99.90;;;;;;5114302;28;20193;-84
2022/10/07 04:00:13;;;;;;;14.10;4.10;;;9.60;99.90;;;;;;5118304;28;20597;-94
2022/10/07 04:02:40;;;;;;;15.20;3.87;;;9.60;99.90;;;;;;5118275;28;20224;-87
2022/10/07 04:05:09;;;;;;;14.30;4.07;;;9.60;99.90;;;;;;5118334;28;20212;-91
2022/10/07 04:07:36;;;;;;;17.10;4.80;;;9.50;99.90;;;;;;5117706;28;20189;-86
2022/10/07 04:10:05;;;;;;;12.80;4.00;;;9.50;99.90;;;;;;5117253;28;20223;-86
2022/10/07 04:12:32;;;;;;;12.93;4.53;;;9.50;99.90;;;;;;5117431;28;20203;-86
2022/10/07 04:15:00;;;;;;;14.70;3.90;;;9.60;99.90;;;;;;5117302;28;20249;-94
2022/10/07 04:17:28;;;;;;;10.60;3.40;;;9.40;99.90;;;;;;5118277;28;20196;-94
2022/10/07 04:20:01;;;;;;;11.50;3.50;;;9.40;99.90;;;;;;5118329;28;20193;-96
2022/10/07 04:22:27;;;;;;;14.33;3.83;;;9.20;99.90;;;;;;5117898;28;20211;-88
2022/10/07 04:27:43;;;;;;;16.70;3.77;;;9.20;99.90;;;;;;5118223;28;20254;-94
2022/10/07 04:30:11;;;;;;;13.40;3.87;;;9.10;99.90;;;;;;5116911;28;20274;-94
2022/10/07 04:32:39;;;;;;;14.43;4.17;;;9.20;99.90;;;;;;5122745;28;20196;-93
2022/10/07 04:35:07;;;;;;;20.77;5.07;;;9.20;99.90;;;;;;5127903;28;20197;-91
2022/10/07 04:37:35;;;;;;;21.13;5.30;;;9.20;99.90;;;;;;5128696;28;20185;-95
2022/10/07 04:40:02;;;;;;;26.00;6.10;;;9.30;99.90;;;;;;5127611;28;20189;-94
2022/10/07 04:45:27;;;;;;;23.43;6.20;;;9.30;99.90;;;;;;5127209;28;20211;-95
2022/10/07 04:47:53;;;;;;;19.00;5.67;;;9.30;99.90;;;;;;5127983;28;20200;-95
2022/10/07 04:50:21;;;;;;;13.90;4.90;;;9.20;99.90;;;;;;5124939;28;20220;-95
2022/10/07 04:52:48;;;;;;;13.73;5.17;;;9.20;99.90;;;;;;5130347;28;20188;-95
2022/10/07 04:55:18;;;;;;;19.37;5.43;;;9.30;99.90;;;;;;5121859;28;20195;-94
2022/10/07 04:57:46;;;;;;;14.27;4.43;;;9.30;99.90;;;;;;5125355;28;20188;-94
2022/10/07 05:00:13;;;;;;;12.27;4.63;;;9.20;99.90;;;;;;5124319;28;20192;-95
2022/10/07 05:02:40;;;;;;;11.23;4.30;;;9.20;99.90;;;;;;5116525;28;20243;-93
2022/10/07 05:05:08;;;;;;;15.37;4.23;;;9.20;99.90;;;;;;5116825;28;20223;-94
2022/10/07 05:07:35;;;;;;;19.30;4.63;;;9.10;99.90;;;;;;5116972;28;20203;-93
2022/10/07 05:10:06;;;;;;;14.17;5.40;;;9.20;99.90;;;;;;5116787;28;20254;-94
2022/10/07 05:12:34;;;;;;;13.80;4.70;;;9.10;99.90;;;;;;5116826;28;20192;-91
2022/10/07 05:15:06;;;;;;;18.73;4.23;;;9.10;99.90;;;;;;5117321;28;20199;-94
2022/10/07 05:17:33;;;;;;;11.13;4.13;;;9.20;99.90;;;;;;5118033;27;20185;-93
2022/10/07 05:20:00;;;;;;;14.93;4.77;;;9.20;99.90;;;;;;5129822;28;20283;-92
2022/10/07 05:22:30;;;;;;;13.17;4.67;;;9.20;99.90;;;;;;5129486;28;20200;-94
2022/10/07 05:24:58;;;;;;;13.33;3.73;;;9.20;99.90;;;;;;5129252;28;20277;-93
2022/10/07 05:27:31;;;;;;;10.33;4.13;;;9.30;99.90;;;;;;5130591;28;20193;-91
2022/10/07 05:29:59;;;;;;;15.17;4.57;;;9.30;99.90;;;;;;5131073;28;20220;-91
2022/10/07 05:32:29;;;;;;;15.37;4.47;;;9.30;99.90;;;;;;5131144;28;20195;-93
2022/10/07 05:34:57;;;;;;;15.30;4.53;;;9.20;99.90;;;;;;5131472;28;20208;-91
2022/10/07 05:37:24;;;;;;;13.80;4.40;;;9.20;99.90;;;;;;5127814;28;20201;-90
2022/10/07 05:39:51;;;;;;;13.87;4.30;;;9.20;99.90;;;;;;5125617;28;20230;-90
2022/10/07 05:42:21;;;;;;;12.23;4.20;;;9.20;99.90;;;;;;5125776;28;20212;-89
2022/10/07 05:44:53;;;;;;;14.20;4.50;;;9.20;99.90;;;;;;5128257;28;20185;-92
2022/10/07 05:47:23;;;;;;;21.97;4.30;;;9.20;99.90;;;;;;5125994;27;20228;-93
2022/10/07 05:49:57;;;;;;;10.97;3.90;;;9.10;99.90;;;;;;5126281;28;20579;-92
2022/10/07 05:52:30;;;;;;;14.43;4.13;;;9.10;99.90;;;;;;5128171;28;20209;-91
2022/10/07 05:54:58;;;;;;;10.60;3.50;;;9.20;99.90;;;;;;5127797;28;20184;-90
2022/10/07 05:57:25;;;;;;;13.83;4.50;;;9.10;99.90;;;;;;5126748;28;20264;-90
2022/10/07 05:59:52;;;;;;;15.13;3.80;;;9.10;99.90;;;;;;5128295;28;20211;-92
2022/10/07 06:02:19;;;;;;;13.83;4.27;;;9.10;99.90;;;;;;5128751;28;20220;-91
2022/10/07 06:04:48;;;;;;;10.40;3.80;;;9.00;99.90;;;;;;5128657;28;20201;-89
2022/10/07 06:07:17;;;;;;;15.50;4.20;;;9.10;99.90;;;;;;5126302;28;20204;-90
2022/10/07 06:15:14;;;;;;;14.57;3.73;;;9.10;99.90;;;;;;5122430;28;20716;-89
2022/10/07 06:17:44;;;;;;;10.03;3.70;;;9.00;99.90;;;;;;5123712;28;20260;-89
2022/10/07 06:20:14;;;;;;;16.97;3.97;;;9.10;99.90;;;;;;5120729;28;20223;-91
2022/10/07 06:22:44;;;;;;;14.00;4.17;;;9.00;99.90;;;;;;5119147;28;20200;-88
2022/10/07 06:25:11;;;;;;;14.37;3.97;;;9.00;99.90;;;;;;5122754;28;20191;-90
2022/10/07 06:27:39;;;;;;;16.70;3.77;;;9.00;99.90;;;;;;5123041;28;20185;-90
2022/10/07 06:30:07;;;;;;;10.47;3.70;;;9.00;99.90;;;;;;5125575;28;20235;-89
2022/10/07 06:32:40;;;;;;;9.83;4.60;;;9.00;99.90;;;;;;5123189;28;20200;-90
2022/10/07 06:35:08;;;;;;;15.30;3.63;;;9.10;99.90;;;;;;5123244;28;20204;-90
2022/10/07 06:37:35;;;;;;;11.80;3.17;;;9.20;99.90;;;;;;5123326;28;20197;-90
2022/10/07 06:40:04;;;;;;;11.33;3.80;;;9.20;99.90;;;;;;5122934;28;20272;-92
2022/10/07 06:42:37;;;;;;;13.87;3.67;;;9.30;99.90;;;;;;5121545;28;20208;-89
2022/10/07 06:45:08;;;;;;;14.40;4.07;;;9.30;99.90;;;;;;5123553;28;20208;-89
2022/10/07 06:47:42;;;;;;;11.13;4.13;;;9.30;99.90;;;;;;5122396;28;20199;-90
2022/10/07 06:50:10;;;;;;;15.37;4.10;;;9.30;99.90;;;;;;5124822;28;20296;-92
2022/10/07 06:52:37;;;;;;;14.03;4.23;;;9.30;99.90;;;;;;5122600;28;20189;-91
2022/10/07 06:55:08;;;;;;;11.70;3.93;;;9.30;99.90;;;;;;5121963;28;20640;-90
2022/10/07 06:57:42;;;;;;;11.80;3.83;;;9.40;99.90;;;;;;5121511;28;20204;-90
2022/10/07 07:00:11;;;;;;;18.07;4.37;;;9.40;99.90;;;;;;5121737;28;20208;-91
2022/10/07 07:02:40;;;;;;;14.27;3.80;;;9.40;99.90;;;;;;5121084;28;20232;-91
2022/10/07 07:05:07;;;;;;;11.93;3.23;;;9.50;99.90;;;;;;5121651;28;20227;-91
2022/10/07 07:07:40;;;;;;;18.60;5.03;;;9.60;99.90;;;;;;5120277;28;20957;-89
2022/10/07 07:10:09;;;;;;;11.80;3.40;;;9.70;99.90;;;;;;5121119;28;20231;-89
2022/10/07 07:12:36;;;;;;;12.03;3.23;;;9.80;99.90;;;;;;5121277;28;20195;-92
2022/10/07 07:15:04;;;;;;;13.73;3.30;;;9.80;99.90;;;;;;5121135;28;20280;-89
2022/10/07 07:17:31;;;;;;;14.73;3.43;;;9.80;99.90;;;;;;5117273;28;20201;-87
2022/10/07 07:20:04;;;;;;;15.23;3.87;;;9.80;99.90;;;;;;5116174;28;20204;-92
2022/10/07 07:22:32;;;;;;;16.50;4.23;;;9.80;99.90;;;;;;5116202;28;20200;-88
2022/10/07 07:25:02;;;;;;;9.10;3.47;;;9.90;99.90;;;;;;5112603;28;20191;-90
2022/10/07 07:27:33;;;;;;;10.80;3.60;;;10.00;99.90;;;;;;5115382;28;20536;-89
2022/10/07 07:30:01;;;;;;;14.77;4.07;;;10.10;99.90;;;;;;5095614;28;20228;-89
2022/10/07 07:32:29;;;;;;;12.47;3.43;;;10.30;99.90;;;;;;5118468;28;20192;-91
2022/10/07 07:34:59;;;;;;;8.17;3.20;;;10.30;99.90;;;;;;5119834;28;20207;-90
2022/10/07 07:37:29;;;;;;;15.40;3.47;;;10.30;99.90;;;;;;5118476;28;20219;-89
2022/10/07 07:39:56;;;;;;;13.87;3.77;;;10.40;99.90;;;;;;5118796;28;20188;-88
2022/10/07 07:42:25;;;;;;;26.10;10.77;;;10.50;99.90;;;;;;5118940;28;20208;-89
2022/10/07 07:44:59;;;;;;;20.83;6.20;;;10.60;99.90;;;;;;5119009;28;20223;-92
2022/10/07 07:47:27;;;;;;;43.67;15.60;;;10.70;99.90;;;;;;5119351;28;20711;-90
2022/10/07 07:49:55;;;;;;;12.47;3.60;;;10.70;99.90;;;;;;5118748;28;20596;-89
2022/10/07 07:52:24;;;;;;;27.07;8.33;;;10.80;99.90;;;;;;5118145;28;20200;-91
2022/10/07 07:54:58;;;;;;;13.90;5.07;;;11.00;99.90;;;;;;5119131;28;20231;-88
2022/10/07 07:57:25;;;;;;;13.80;4.37;;;11.10;99.90;;;;;;5118967;28;20277;-94
2022/10/07 07:59:53;;;;;;;24.67;8.07;;;11.10;99.90;;;;;;5118287;28;20224;-90
2022/10/07 08:02:27;;;;;;;15.97;4.43;;;11.10;99.90;;;;;;5118695;28;20732;-93
2022/10/07 08:04:54;;;;;;;16.77;5.33;;;11.20;99.90;;;;;;5118534;28;20204;-91
2022/10/07 08:07:22;;;;;;;7.93;3.10;;;11.20;99.90;;;;;;5118778;28;20215;-87
2022/10/07 08:09:50;;;;;;;12.03;3.97;;;11.30;99.90;;;;;;5117969;28;20691;-90
2022/10/07 08:12:19;;;;;;;16.90;4.50;;;11.40;99.90;;;;;;5117839;28;20213;-88
2022/10/07 08:14:47;;;;;;;15.80;5.00;;;11.50;99.90;;;;;;5117625;28;20207;-87
2022/10/07 08:17:14;;;;;;;24.60;6.97;;;11.60;99.90;;;;;;5117280;28;20208;-85
2022/10/07 08:19:42;;;;;;;13.20;4.20;;;11.60;99.90;;;;;;5116999;28;20210;-88
2022/10/07 08:22:12;;;;;;;15.97;4.97;;;11.70;99.90;;;;;;5117448;28;20583;-87
2022/10/07 08:24:42;;;;;;;14.23;3.07;;;11.80;99.90;;;;;;5117483;28;20191;-89
2022/10/07 08:27:10;;;;;;;9.77;2.90;;;11.90;99.90;;;;;;5123474;28;20645;-90
2022/10/07 08:29:43;;;;;;;11.53;2.93;;;12.00;99.90;;;;;;5119748;28;20215;-89
2022/10/07 08:32:12;;;;;;;12.30;3.03;;;12.10;99.90;;;;;;5119194;28;20270;-86
2022/10/07 08:34:42;;;;;;;10.50;2.83;;;12.10;99.90;;;;;;5117593;28;20210;-85
2022/10/07 08:37:08;;;;;;;13.87;3.17;;;12.20;99.90;;;;;;5116929;28;20207;-85
2022/10/07 08:39:36;;;;;;;18.10;3.30;;;12.30;99.90;;;;;;5117641;28;20202;-86
2022/10/07 08:42:12;;;;;;;7.90;2.50;;;12.40;99.90;;;;;;5116558;28;20224;-85
2022/10/07 08:44:40;;;;;;;15.60;3.10;;;12.50;99.90;;;;;;5117214;28;20195;-85
2022/10/07 08:47:14;;;;;;;15.20;3.60;;;12.60;99.90;;;;;;5118533;28;20229;-91
2022/10/07 08:49:53;;;;;;;12.45;3.05;;;12.60;99.90;;;;;;5119237;28;20444;-88
2022/10/07 08:52:32;;;;;;;15.40;4.33;;;12.70;99.90;;;;;;5117124;28;20249;-88
2022/10/07 08:55:00;;;;;;;12.77;3.53;;;12.90;99.90;;;;;;5116854;28;20193;-87
2022/10/07 08:57:51;;;;;;;10.90;3.37;;;13.00;99.90;;;;;;5118589;28;20195;-91
2022/10/07 09:00:24;;;;;;;17.10;2.93;;;13.10;99.90;;;;;;5116916;28;20211;-87
2022/10/07 09:03:06;;;;;;;16.10;3.13;;;13.20;99.90;;;;;;5116597;28;20231;-93
2022/10/07 09:05:44;;;;;;;11.87;3.70;;;13.40;99.90;;;;;;5117499;28;20189;-92
2022/10/07 09:08:16;;;;;;;11.93;3.23;;;13.50;99.90;;;;;;5117741;28;20218;-83
2022/10/07 09:10:48;;;;;;;12.73;2.87;;;13.70;99.90;;;;;;5115117;28;20216;-86
2022/10/07 09:13:24;;;;;;;11.17;3.03;;;13.70;99.90;;;;;;5115751;28;20599;-87
2022/10/07 09:15:59;;;;;;;15.97;4.20;;;13.80;99.90;;;;;;5095597;28;20426;-87
2022/10/07 09:18:31;;;;;;;10.73;3.87;;;14.00;99.90;;;;;;5096314;28;20944;-91
2022/10/07 09:21:08;;;;;;;10.80;3.83;;;14.10;99.90;;;;;;5096418;28;20288;-86
2022/10/07 09:23:38;;;;;;;8.33;2.73;;;14.30;99.90;;;;;;5096990;28;20201;-94
2022/10/07 09:26:10;;;;;;;13.23;3.47;;;14.40;99.90;;;;;;5097238;28;20197;-89
2022/10/07 09:28:38;;;;;;;14.80;3.10;;;14.50;99.90;;;;;;5096682;28;20193;-88
2022/10/07 09:31:06;;;;;;;15.37;2.80;;;14.60;99.90;;;;;;5095408;28;20217;-86
2022/10/07 09:33:40;;;;;;;12.77;3.57;;;14.60;99.90;;;;;;5109873;28;20193;-85
2022/10/07 09:36:11;;;;;;;10.50;2.87;;;14.70;99.90;;;;;;5114852;28;20203;-85
2022/10/07 09:38:40;;;;;;;7.60;3.13;;;14.70;99.90;;;;;;5115130;28;20197;-85
2022/10/07 09:41:16;;;;;;;12.30;3.30;;;14.70;99.90;;;;;;5115008;28;20215;-86
2022/10/07 09:43:55;;;;;;;17.40;3.70;;;14.80;99.90;;;;;;5115369;28;20192;-86
2022/10/07 09:46:40;;;;;;;10.87;3.37;;;14.90;99.90;;;;;;5115629;28;20297;-86
2022/10/07 09:49:26;;;;;;;15.30;3.57;;;15.00;99.90;;;;;;5116097;28;20228;-89
2022/10/07 09:52:01;;;;;;;12.90;3.30;;;15.00;99.90;;;;;;5116032;28;20587;-92
2022/10/07 09:54:28;;;;;;;9.87;2.83;;;15.20;99.90;;;;;;5115186;28;20204;-91
2022/10/07 09:56:56;;;;;;;12.97;3.17;;;15.30;99.90;;;;;;5117504;28;20201;-92
2022/10/07 09:59:26;;;;;;;7.90;3.03;;;15.30;99.90;;;;;;5116541;28;20204;-90
2022/10/07 10:01:55;;;;;;;7.43;2.90;;;15.30;99.90;;;;;;5117190;28;20233;-88
2022/10/07 10:04:29;;;;;;;11.00;2.97;;;15.40;99.90;;;;;;5115959;28;20206;-89
2022/10/07 10:07:00;;;;;;;14.07;3.83;;;15.50;99.90;;;;;;5122906;28;20203;-92
2022/10/07 10:10:10;;;;;;;13.03;3.33;;;15.60;99.90;;;;;;5118980;28;20213;-92
2022/10/07 10:12:45;;;;;;;16.30;3.63;;;15.70;99.90;;;;;;5115483;28;20190;-88
2022/10/07 10:15:24;;;;;;;11.40;3.23;;;15.80;99.90;;;;;;5115915;27;20201;-82
2022/10/07 10:17:53;;;;;;;10.90;2.53;;;15.80;99.90;;;;;;5114981;28;20192;-88
2022/10/07 10:20:30;;;;;;;10.00;2.73;;;15.80;99.90;;;;;;5114602;28;20194;-84
2022/10/07 10:23:00;;;;;;;10.23;2.50;;;15.80;99.90;;;;;;5113678;28;20193;-91
2022/10/07 10:28:38;;;;;;;13.23;2.50;;;16.00;99.90;;;;;;5117500;28;20544;-95
2022/10/07 10:31:16;;;;;;;8.97;2.40;;;16.10;99.90;;;;;;5115193;28;20703;-87
2022/10/07 10:33:47;;;;;;;10.77;2.77;;;16.20;99.90;;;;;;5112808;28;20555;-87
2022/10/07 10:36:20;;;;;;;8.07;2.50;;;16.30;99.90;;;;;;5113848;28;20191;-87
2022/10/07 10:38:59;;;;;;;11.37;2.80;;;16.30;99.90;;;;;;5113909;28;20563;-87
2022/10/07 10:41:34;;;;;;;11.13;2.97;;;16.30;99.90;;;;;;5109461;28;20293;-89
2022/10/07 10:44:19;;;;;;;9.30;2.73;;;16.40;99.90;;;;;;5114828;28;20677;-86
2022/10/07 10:46:55;;;;;;;8.93;2.50;;;16.40;99.90;;;;;;5114468;28;20632;-87
2022/10/07 10:49:29;;;;;;;8.33;2.30;;;16.50;99.90;;;;;;5115072;28;20210;-87
2022/10/07 10:52:19;;;;;;;9.93;2.70;;;16.40;99.90;;;;;;5115549;28;20224;-87
2022/10/07 10:55:03;;;;;;;11.17;2.93;;;16.30;99.90;;;;;;5112888;28;20204;-87
2022/10/07 10:57:46;;;;;;;11.17;3.03;;;16.30;99.90;;;;;;5115444;28;20211;-87
2022/10/07 11:00:17;;;;;;;11.73;2.93;;;16.30;99.90;;;;;;5114409;28;20219;-86
2022/10/07 11:03:13;;;;;;;10.38;3.30;;;16.40;99.90;;;;;;5112732;28;20421;-86
2022/10/07 11:05:41;;;;;;;14.50;4.03;;;16.50;99.90;;;;;;5112353;28;20203;-87
2022/10/07 11:08:16;;;;;;;18.33;2.70;;;16.40;99.90;;;;;;5113817;27;20219;-84
2022/10/07 11:10:50;;;;;;;7.00;2.77;;;16.60;99.90;;;;;;5113863;28;20242;-86
2022/10/07 11:13:29;;;;;;;8.53;2.67;;;16.60;99.90;;;;;;5111600;28;20661;-86
2022/10/07 11:16:01;;;;;;;11.00;2.77;;;16.80;99.90;;;;;;5111994;28;20249;-86
2022/10/07 11:18:35;;;;;;;10.83;2.63;;;16.80;99.90;;;;;;5119238;28;20204;-87
2022/10/07 11:21:06;;;;;;;7.90;2.60;;;16.80;99.90;;;;;;5114063;28;20202;-86
2022/10/07 11:23:41;;;;;;;8.27;2.60;;;16.90;99.90;;;;;;5111318;28;20642;-85
2022/10/07 11:26:16;;;;;;;12.23;3.10;;;16.90;99.90;;;;;;5114699;28;20193;-86
2022/10/07 11:28:44;;;;;;;16.77;3.80;;;16.80;99.90;;;;;;5113432;28;20192;-86
2022/10/07 11:31:18;;;;;;;5.63;2.87;;;16.90;99.90;;;;;;5114614;28;20778;-85
2022/10/07 11:33:52;;;;;;;9.70;2.57;;;16.90;99.90;;;;;;5114725;28;20204;-86
2022/10/07 11:36:26;;;;;;;12.83;2.90;;;16.90;99.90;;;;;;5119888;28;20190;-86
2022/10/07 11:38:53;;;;;;;11.87;3.30;;;17.00;99.90;;;;;;5117572;28;20200;-86
2022/10/07 11:41:27;;;;;;;6.53;2.20;;;17.00;99.90;;;;;;5115965;28;20257;-86
2022/10/07 11:43:57;;;;;;;10.10;2.47;;;16.90;99.90;;;;;;5115661;28;20191;-86
2022/10/07 11:46:28;;;;;;;11.40;3.10;;;16.90;99.90;;;;;;5115490;28;20188;-86
2022/10/07 11:49:00;;;;;;;13.93;2.97;;;17.00;99.90;;;;;;5114989;28;20605;-86
2022/10/07 11:51:33;;;;;;;9.40;2.20;;;17.10;99.90;;;;;;5114649;28;20737;-86
2022/10/07 11:54:02;;;;;;;6.57;2.43;;;17.30;99.90;;;;;;5123417;28;20224;-86
2022/10/07 11:56:37;;;;;;;6.77;2.50;;;17.30;99.90;;;;;;5126473;28;20205;-87
2022/10/07 11:59:06;;;;;;;11.63;2.70;;;17.30;99.90;;;;;;5113645;28;20437;-86
2022/10/07 12:01:52;;;;;;;10.10;2.40;;;17.40;99.90;;;;;;5114125;28;20228;-86
2022/10/07 12:04:34;;;;;;;9.67;2.53;;;17.30;99.90;;;;;;5114044;28;20200;-86
2022/10/07 12:07:39;;;;;;;9.77;2.63;;;17.60;99.90;;;;;;5110203;28;20198;-85
2022/10/07 12:10:27;;;;;;;10.40;2.40;;;17.40;99.90;;;;;;5129120;27;20652;-85
2022/10/07 12:12:59;;;;;;;9.03;2.90;;;17.50;99.90;;;;;;5133753;27;20213;-86
2022/10/07 12:15:33;;;;;;;11.93;4.93;;;17.50;99.90;;;;;;5133658;27;20191;-86
2022/10/07 12:18:26;;;;;;;7.47;2.70;;;17.50;99.90;;;;;;5137786;27;20195;-86
2022/10/07 12:21:09;;;;;;;7.43;2.07;;;17.60;99.90;;;;;;5116550;28;20206;-86
2022/10/07 12:23:38;;;;;;;5.93;2.20;;;17.60;99.90;;;;;;5117059;28;20204;-86
2022/10/07 12:26:50;;;;;;;10.02;3.05;;;17.60;99.90;;;;;;5115910;28;20435;-84
2022/10/07 12:29:57;;;;;;;12.90;2.50;;;17.80;99.90;;;;;;5110797;28;20198;-86
2022/10/07 12:32:59;;;;;;;9.77;2.63;;;17.80;99.90;;;;;;5098757;28;20287;-86
2022/10/07 12:35:49;;;;;;;6.53;2.00;;;17.70;99.90;;;;;;5115547;28;20285;-86
2022/10/07 12:38:23;;;;;;;7.17;2.33;;;17.80;99.90;;;;;;5117368;28;20552;-87
2022/10/07 12:40:59;;;;;;;8.27;2.10;;;17.80;99.90;;;;;;5118165;28;20190;-89
2022/10/07 12:43:40;;;;;;;6.00;2.47;;;17.80;99.90;;;;;;5118671;28;20210;-83
2022/10/07 12:46:18;;;;;;;8.37;2.10;;;17.90;99.90;;;;;;5120105;28;20211;-91
2022/10/07 12:48:49;;;;;;;7.77;2.17;;;17.80;99.90;;;;;;5118119;28;20765;-88
2022/10/07 12:51:22;;;;;;;9.03;2.00;;;17.90;99.90;;;;;;5117951;28;20225;-87
2022/10/07 12:53:51;;;;;;;10.77;2.65;;;17.90;99.90;;;;;;5119445;28;20433;-87
2022/10/07 12:56:23;;;;;;;7.10;2.33;;;18.00;99.90;;;;;;5118711;28;20204;-87
2022/10/07 13:02:46;;;;;;;5.33;2.23;;;18.10;99.90;;;;;;5120225;27;20360;-86
2022/10/07 13:05:37;;;;;;;6.13;2.03;;;18.10;99.90;;;;;;5116570;28;20210;-84
2022/10/07 13:08:34;;;;;;;4.37;1.70;;;18.00;99.90;;;;;;5115725;28;20696;-87
2022/10/07 13:11:26;;;;;;;10.07;2.30;;;18.00;99.90;;;;;;5116786;28;20243;-90
2022/10/07 13:14:03;;;;;;;7.43;2.63;;;18.00;99.90;;;;;;5117946;28;20200;-89
2022/10/07 13:16:42;;;;;;;7.07;2.00;;;18.20;99.90;;;;;;5116344;28;20669;-89
2022/10/07 13:19:24;;;;;;;5.83;2.10;;;18.20;99.90;;;;;;5116147;28;20206;-88
2022/10/07 13:22:04;;;;;;;7.13;1.87;;;18.20;99.90;;;;;;5117320;28;20196;-89
2022/10/07 13:24:34;;;;;;;8.63;2.40;;;18.20;99.90;;;;;;5119726;28;20579;-90
2022/10/07 13:27:07;;;;;;;7.87;2.27;;;18.20;99.90;;;;;;5116089;28;20613;-88
2022/10/07 13:29:38;;;;;;;5.60;1.70;;;18.20;99.90;;;;;;5116046;28;20233;-91
2022/10/07 13:32:15;;;;;;;8.80;2.57;;;18.20;99.90;;;;;;5116745;28;20219;-91
2022/10/07 13:34:50;;;;;;;6.80;2.17;;;18.30;99.90;;;;;;5116875;28;20658;-90